createdAt,value
2022-08-22T00:00:11.718Z,101183.19
2022-08-22T00:02:59.073Z,101199.78
2022-08-22T00:03:07.725Z,101278.91
2022-08-22T00:03:08.439Z,101274.81
2022-08-22T00:06:17.784Z,101185.63
2022-08-22T00:08:45.472Z,101186.16
2022-08-22T00:11:22.138Z,101180.56
2022-08-22T00:14:15.714Z,101181.78
2022-08-22T00:17:24.608Z,101178.31
2022-08-22T00:20:30.621Z,101173.56
2022-08-22T00:23:24.261Z,101179.63
2022-08-22T00:26:03.915Z,101180.81
2022-08-22T00:28:39.191Z,101184.38
2022-08-22T00:31:09.641Z,101185.84
2022-08-22T00:34:00.442Z,101183.47
2022-08-22T00:37:03.218Z,101187.28
2022-08-22T00:39:36.453Z,101180.69
2022-08-22T00:42:15.773Z,101175.38
2022-08-22T00:45:09.054Z,101187.03
2022-08-22T00:48:10.473Z,101184.34
2022-08-22T00:51:00.686Z,101184.44
2022-08-22T00:53:56.594Z,101186.66
2022-08-22T00:56:42.388Z,101183.00
2022-08-22T00:59:41.099Z,101188.56
2022-08-22T01:02:55.512Z,101173.00
2022-08-22T01:05:41.423Z,101185.28
2022-08-22T01:08:39.110Z,101179.34
2022-08-22T01:11:18.467Z,101181.59
2022-08-22T01:14:15.290Z,101177.81
2022-08-22T01:17:16.755Z,101176.16
2022-08-22T01:20:01.412Z,101173.56
2022-08-22T01:22:57.134Z,101174.03
2022-08-22T01:25:39.586Z,101172.16
2022-08-22T01:28:13.128Z,101170.13
2022-08-22T01:30:52.477Z,101168.94
2022-08-22T01:33:35.008Z,101163.78
2022-08-22T01:36:20.603Z,101163.41
2022-08-22T01:38:48.257Z,101160.72
2022-08-22T01:41:35.714Z,101161.94
2022-08-22T01:44:29.115Z,101159.41
2022-08-22T01:47:00.723Z,101157.75
2022-08-22T01:49:41.713Z,101149.06
2022-08-22T01:52:35.374Z,101152.34
2022-08-22T01:55:32.171Z,101151.13
2022-08-22T01:58:14.553Z,101154.72
2022-08-22T02:01:13.508Z,101152.97
2022-08-22T02:03:53.714Z,101156.06
2022-08-22T02:06:36.012Z,101159.03
2022-08-22T02:09:40.384Z,101161.34
2022-08-22T02:12:22.473Z,101156.78
2022-08-22T02:15:03.041Z,101162.81
2022-08-22T02:17:52.774Z,101168.31
2022-08-22T02:20:30.827Z,101163.59
2022-08-22T02:23:22.646Z,101157.75
2022-08-22T02:26:08.560Z,101160.25
2022-08-22T02:28:58.250Z,101154.88
2022-08-22T02:31:43.200Z,101154.50
2022-08-22T02:34:37.320Z,101157.41
2022-08-22T02:37:49.674Z,101159.84
2022-08-22T02:40:22.231Z,101156.06
2022-08-22T02:42:57.521Z,101156.25
2022-08-22T02:45:51.325Z,101165.50
2022-08-22T02:48:32.654Z,101159.78
2022-08-22T02:51:17.604Z,101160.78
2022-08-22T02:53:56.292Z,101168.97
2022-08-22T02:56:31.669Z,101165.53
2022-08-22T02:59:16.655Z,101168.97
2022-08-22T03:01:46.740Z,101169.69
2022-08-22T03:04:32.327Z,101165.53
2022-08-22T03:07:22.523Z,101174.28
2022-08-22T03:10:10.734Z,101167.41
2022-08-22T03:13:00.965Z,101174.53
2022-08-22T03:15:46.092Z,101173.88
2022-08-22T03:18:27.821Z,101177.59
2022-08-22T03:21:14.066Z,101173.59
2022-08-22T03:23:48.980Z,101176.22
2022-08-22T03:26:29.845Z,101180.25
2022-08-22T03:29:08.950Z,101178.91
2022-08-22T03:31:36.721Z,101174.16
2022-08-22T03:34:24.804Z,101174.28
2022-08-22T03:37:26.484Z,101185.06
2022-08-22T03:40:02.021Z,101172.91
2022-08-22T03:42:51.090Z,101183.31
2022-08-22T03:45:55.493Z,101189.78
2022-08-22T03:49:01.128Z,101182.34
2022-08-22T03:51:39.675Z,101193.13
2022-08-22T03:54:42.488Z,101186.34
2022-08-22T03:57:20.954Z,101188.72
2022-08-22T04:00:23.723Z,101187.38
2022-08-22T04:03:14.452Z,101180.56
2022-08-22T04:06:02.842Z,101188.94
2022-08-22T04:08:49.133Z,101190.78
2022-08-22T04:11:37.272Z,101200.78
2022-08-22T04:14:04.973Z,101186.78
2022-08-22T04:16:51.033Z,101191.72
2022-08-22T04:19:48.445Z,101203.13
2022-08-22T04:22:49.743Z,101201.22
2022-08-22T04:25:23.495Z,101204.59
2022-08-22T04:28:11.585Z,101215.06
2022-08-22T04:31:14.075Z,101219.59
2022-08-22T04:33:44.963Z,101246.41
2022-08-22T04:36:26.649Z,101244.06
2022-08-22T04:39:07.248Z,101247.00
2022-08-22T04:41:54.977Z,101267.28
2022-08-22T04:44:30.025Z,101281.47
2022-08-22T04:47:03.658Z,101280.47
2022-08-22T04:49:43.486Z,101285.56
2022-08-22T04:52:32.196Z,101289.44
2022-08-22T04:55:05.633Z,101294.84
2022-08-22T04:57:56.240Z,101301.41
2022-08-22T05:00:24.306Z,101316.06
2022-08-22T05:02:57.982Z,101323.16
2022-08-22T05:05:32.142Z,101330.22
2022-08-22T05:08:03.247Z,101333.22
2022-08-22T05:10:41.669Z,101338.44
2022-08-22T05:13:18.223Z,101334.06
2022-08-22T05:15:50.390Z,101340.97
2022-08-22T05:18:29.793Z,101353.44
2022-08-22T05:21:02.585Z,101355.78
2022-08-22T05:23:43.447Z,101361.66
2022-08-22T05:26:13.391Z,101362.69
2022-08-22T05:28:51.392Z,101361.50
2022-08-22T05:31:29.278Z,101362.84
2022-08-22T05:34:06.423Z,101362.03
2022-08-22T05:36:41.353Z,101370.59
2022-08-22T05:39:19.621Z,101372.44
2022-08-22T05:41:50.020Z,101368.41
2022-08-22T05:44:22.416Z,101372.09
2022-08-22T05:47:04.932Z,101375.66
2022-08-22T05:49:42.979Z,101379.03
2022-08-22T05:52:28.754Z,101375.66
2022-08-22T05:55:12.351Z,101379.75
2022-08-22T05:57:43.955Z,101376.19
2022-08-22T06:00:19.137Z,101380.69
2022-08-22T06:03:15.846Z,101385.75
2022-08-22T06:05:50.106Z,101381.03
2022-08-22T06:08:24.276Z,101384.41
2022-08-22T06:10:56.715Z,101379.19
2022-08-22T06:13:37.263Z,101384.44
2022-08-22T06:16:16.974Z,101396.22
2022-08-22T06:18:45.950Z,101404.25
2022-08-22T06:21:18.012Z,101413.06
2022-08-22T06:23:53.234Z,101412.00
2022-08-22T06:26:21.685Z,101417.25
2022-08-22T06:28:55.569Z,101407.81
2022-08-22T06:31:36.252Z,101425.19
2022-08-22T06:34:23.676Z,101424.00
2022-08-22T06:36:54.528Z,101429.38
2022-08-22T06:39:27.098Z,101421.13
2022-08-22T06:42:12.213Z,101413.50
2022-08-22T06:44:53.683Z,101420.38
2022-08-22T06:47:43.545Z,101413.13
2022-08-22T06:50:30.151Z,101425.72
2022-08-22T06:53:12.538Z,101430.56
2022-08-22T06:55:52.662Z,101429.63
2022-08-22T06:58:34.275Z,101424.78
2022-08-22T07:01:11.777Z,101424.84
2022-08-22T07:03:51.058Z,101426.75
2022-08-22T07:06:22.876Z,101428.81
2022-08-22T07:08:55.842Z,101435.94
2022-08-22T07:11:31.614Z,101438.59
2022-08-22T07:14:02.425Z,101438.66
2022-08-22T07:16:34.841Z,101439.91
2022-08-22T07:19:02.690Z,101439.75
2022-08-22T07:21:42.872Z,101445.44
2022-08-22T07:24:14.836Z,101443.38
2022-08-22T07:27:05.875Z,101449.34
2022-08-22T07:29:52.022Z,101460.63
2022-08-22T07:32:28.996Z,101458.94
2022-08-22T07:35:08.702Z,101459.31
2022-08-22T07:37:42.173Z,101469.53
2022-08-22T07:40:27.508Z,101463.13
2022-08-22T07:43:22.621Z,101466.63
2022-08-22T07:45:54.209Z,101470.69
2022-08-22T07:48:27.533Z,101479.13
2022-08-22T07:51:08.653Z,101478.13
2022-08-22T07:53:42.163Z,101485.22
2022-08-22T07:56:19.610Z,101487.22
2022-08-22T07:58:52.192Z,101488.72
2022-08-22T08:01:22.291Z,101492.03
2022-08-22T08:03:55.154Z,101508.56
2022-08-22T08:06:24.867Z,101509.88
2022-08-22T08:08:54.107Z,101512.09
2022-08-22T08:11:25.218Z,101517.06
2022-08-22T08:13:59.618Z,101521.31
2022-08-22T08:16:39.930Z,101510.50
2022-08-22T08:19:10.909Z,101511.84
2022-08-22T08:21:49.862Z,101515.94
2022-08-22T08:24:22.747Z,101526.16
2022-08-22T08:27:13.747Z,101529.06
2022-08-22T08:29:54.652Z,101530.06
2022-08-22T08:32:24.399Z,101528.22
2022-08-22T08:34:52.527Z,101530.50
2022-08-22T08:37:27.897Z,101530.09
2022-08-22T08:40:01.288Z,101525.28
2022-08-22T08:43:15.420Z,101521.63
2022-08-22T08:46:20.019Z,101539.00
2022-08-22T08:49:06.570Z,101532.81
2022-08-22T08:51:57.630Z,101536.19
2022-08-22T08:54:55.691Z,101520.41
2022-08-22T08:57:29.667Z,101533.94
2022-08-22T08:59:57.348Z,101544.97
2022-08-22T09:02:55.600Z,101539.44
2022-08-22T09:05:45.298Z,101546.44
2022-08-22T09:08:45.392Z,101549.06
2022-08-22T09:11:38.430Z,101546.13
2022-08-22T09:14:27.004Z,101549.53
2022-08-22T09:17:12.736Z,101551.69
2022-08-22T09:20:15.415Z,101549.16
2022-08-22T09:23:00.389Z,101551.50
2022-08-22T09:25:41.727Z,101563.44
2022-08-22T09:28:17.319Z,101566.81
2022-08-22T09:30:48.471Z,101562.63
2022-08-22T09:33:24.904Z,101573.91
2022-08-22T09:36:07.178Z,101572.03
2022-08-22T09:38:53.296Z,101574.03
2022-08-22T09:41:27.128Z,101573.22
2022-08-22T09:44:32.042Z,101568.72
2022-08-22T09:47:17.311Z,101573.66
2022-08-22T09:50:12.332Z,101581.44
2022-08-22T09:53:10.125Z,101584.16
2022-08-22T09:55:40.388Z,101588.06
2022-08-22T09:58:27.914Z,101591.34
2022-08-22T10:00:55.772Z,101597.84
2022-08-22T10:03:51.397Z,101591.63
2022-08-22T10:06:27.380Z,101590.84
2022-08-22T10:09:02.195Z,101595.03
2022-08-22T10:11:42.300Z,101602.44
2022-08-22T10:14:22.084Z,101600.75
2022-08-22T10:17:08.085Z,101604.22
2022-08-22T10:19:42.481Z,101610.06
2022-08-22T10:22:41.644Z,101616.19
2022-08-22T10:25:48.448Z,101610.31
2022-08-22T10:28:28.491Z,101624.81
2022-08-22T10:31:24.162Z,101623.88
2022-08-22T10:34:04.417Z,101624.13
2022-08-22T10:36:54.028Z,101626.03
2022-08-22T10:39:29.087Z,101616.31
2022-08-22T10:42:24.500Z,101623.31
2022-08-22T10:45:16.528Z,101623.09
2022-08-22T10:47:58.142Z,101630.63
2022-08-22T10:50:32.761Z,101638.38
2022-08-22T10:54:01.732Z,101632.38
2022-08-22T10:56:45.074Z,101643.97
2022-08-22T10:59:29.382Z,101639.88
2022-08-22T11:02:03.019Z,101637.91
2022-08-22T11:04:43.606Z,101643.22
2022-08-22T11:07:29.176Z,101648.53
2022-08-22T11:10:04.255Z,101654.81
2022-08-22T11:12:42.895Z,101655.28
2022-08-22T11:15:43.620Z,101656.41
2022-08-22T11:19:02.502Z,101670.16
2022-08-22T11:21:58.924Z,101663.34
2022-08-22T11:25:11.704Z,101665.84
2022-08-22T11:27:59.055Z,101674.28
2022-08-22T11:30:53.017Z,101672.38
2022-08-22T11:33:46.663Z,101673.97
2022-08-22T11:36:40.036Z,101686.66
2022-08-22T11:39:33.698Z,101682.38
2022-08-22T11:42:23.689Z,101691.25
2022-08-22T11:44:58.746Z,101689.19
2022-08-22T11:47:50.521Z,101689.66
2022-08-22T11:50:35.551Z,101700.59
2022-08-22T11:53:18.982Z,101693.41
2022-08-22T11:56:07.714Z,101691.19
2022-08-22T11:58:40.855Z,101710.31
2022-08-22T12:01:17.457Z,101702.47
2022-08-22T12:04:00.144Z,101711.03
2022-08-22T12:06:58.912Z,101710.09
2022-08-22T12:09:32.255Z,101711.25
2022-08-22T12:12:38.145Z,101712.91
2022-08-22T12:15:17.709Z,101719.88
2022-08-22T12:18:21.718Z,101716.31
2022-08-22T12:20:52.669Z,101718.19
2022-08-22T12:23:43.265Z,101719.97
2022-08-22T12:26:36.405Z,101722.78
2022-08-22T12:29:57.471Z,101733.63
2022-08-22T12:32:45.736Z,101719.41
2022-08-22T12:35:30.104Z,101720.34
2022-08-22T12:38:28.250Z,101723.81
2022-08-22T12:41:28.439Z,101728.09
2022-08-22T12:44:21.253Z,101726.44
2022-08-22T12:47:17.344Z,101725.34
2022-08-22T12:50:04.148Z,101725.16
2022-08-22T12:52:47.717Z,101725.81
2022-08-22T12:55:50.634Z,101723.13
2022-08-22T12:58:54.735Z,101722.75
2022-08-22T13:01:33.854Z,101726.84
2022-08-22T13:04:05.348Z,101726.28
2022-08-22T13:06:36.007Z,101723.00
2022-08-22T13:09:18.688Z,101727.78
2022-08-22T13:11:50.552Z,101719.47
2022-08-22T13:14:26.204Z,101737.19
2022-08-22T13:16:58.877Z,101733.78
2022-08-22T13:19:32.201Z,101728.94
2022-08-22T13:22:13.880Z,101730.97
2022-08-22T13:24:58.125Z,101734.72
2022-08-22T13:27:51.289Z,101734.38
2022-08-22T13:30:29.969Z,101738.84
2022-08-22T13:33:05.652Z,101745.09
2022-08-22T13:35:52.284Z,101733.41
2022-08-22T13:38:28.021Z,101739.41
2022-08-22T13:40:57.947Z,101741.44
2022-08-22T13:43:30.271Z,101738.09
2022-08-22T13:46:02.444Z,101745.84
2022-08-22T13:49:00.604Z,101750.44
2022-08-22T13:51:50.250Z,101744.84
2022-08-22T13:54:52.804Z,101748.25
2022-08-22T13:57:34.942Z,101746.03
2022-08-22T14:00:22.339Z,101748.88
2022-08-22T14:03:34.919Z,101755.09
2022-08-22T14:06:35.397Z,101750.78
2022-08-22T14:09:12.673Z,101756.66
2022-08-22T14:11:50.394Z,101755.47
2022-08-22T14:14:30.541Z,101761.34
2022-08-22T14:16:59.553Z,101761.69
2022-08-22T14:19:35.007Z,101771.34
2022-08-22T14:22:32.496Z,101764.25
2022-08-22T14:25:18.786Z,101773.88
2022-08-22T14:28:01.192Z,101779.28
2022-08-22T14:31:13.201Z,101781.75
2022-08-22T14:33:48.741Z,101786.59
2022-08-22T14:36:42.197Z,101790.88
2022-08-22T14:39:22.259Z,101790.75
2022-08-22T14:41:58.611Z,101791.28
2022-08-22T14:44:33.902Z,101796.91
2022-08-22T14:47:32.368Z,101801.81
2022-08-22T14:50:00.851Z,101796.97
2022-08-22T14:52:57.178Z,101792.56
2022-08-22T14:55:28.520Z,101794.78
2022-08-22T14:58:03.231Z,101791.59
2022-08-22T15:00:31.167Z,101794.66
2022-08-22T15:03:23.996Z,101787.75
2022-08-22T15:06:00.763Z,101785.88
2022-08-22T15:08:34.619Z,101790.59
2022-08-22T15:11:07.734Z,101794.16
2022-08-22T15:13:40.072Z,101794.84
2022-08-22T15:16:21.278Z,101798.72
2022-08-22T15:18:52.108Z,101797.06
2022-08-22T15:21:24.567Z,101798.72
2022-08-22T15:23:55.680Z,101805.34
2022-08-22T15:26:31.461Z,101800.66
2022-08-22T15:29:20.235Z,101800.84
2022-08-22T15:31:52.132Z,101800.84
2022-08-22T15:34:31.266Z,101802.00
2022-08-22T15:37:05.147Z,101803.56
2022-08-22T15:39:59.910Z,101801.84
2022-08-22T15:42:34.912Z,101804.72
2022-08-22T15:45:03.633Z,101809.28
2022-08-22T15:47:40.044Z,101815.38
2022-08-22T15:50:27.268Z,101824.34
2022-08-22T15:53:07.255Z,101820.44
2022-08-22T15:55:36.967Z,101821.28
2022-08-22T15:58:21.291Z,101823.44
2022-08-22T16:01:19.943Z,101822.94
2022-08-22T16:04:06.461Z,101820.25
2022-08-22T16:06:47.420Z,101824.84
2022-08-22T16:09:53.135Z,101829.22
2022-08-22T16:12:45.996Z,101834.63
2022-08-22T16:15:44.076Z,101834.81
2022-08-22T16:18:34.504Z,101834.97
2022-08-22T16:21:11.425Z,101838.41
2022-08-22T16:23:46.434Z,101832.13
2022-08-22T16:26:31.158Z,101845.84
2022-08-22T16:29:14.971Z,101850.91
2022-08-22T16:31:48.212Z,101842.59
2022-08-22T16:34:16.246Z,101848.50
2022-08-22T16:36:49.549Z,101848.72
2022-08-22T16:39:22.925Z,101838.03
2022-08-22T16:42:23.072Z,101847.88
2022-08-22T16:45:02.738Z,101843.84
2022-08-22T16:47:33.016Z,101846.06
2022-08-22T16:50:15.621Z,101853.69
2022-08-22T16:52:55.248Z,101858.75
2022-08-22T16:55:28.977Z,101861.16
2022-08-22T16:58:20.614Z,101864.22
2022-08-22T17:01:18.078Z,101862.69
2022-08-22T17:03:51.447Z,101868.44
2022-08-22T17:06:49.895Z,101871.84
2022-08-22T17:09:51.521Z,101871.69
2022-08-22T17:12:46.893Z,101878.44
2022-08-22T17:15:47.443Z,101873.53
2022-08-22T17:18:46.062Z,101883.16
2022-08-22T17:21:57.249Z,101886.19
2022-08-22T17:24:32.090Z,101886.19
2022-08-22T17:27:26.692Z,101890.59
2022-08-22T17:29:59.819Z,101887.41
2022-08-22T17:33:02.859Z,101895.84
2022-08-22T17:36:26.241Z,101898.72
2022-08-22T17:39:16.712Z,101897.53
2022-08-22T17:42:00.588Z,101910.34
2022-08-22T17:45:07.365Z,101903.28
2022-08-22T17:48:00.858Z,101916.28
2022-08-22T17:50:55.063Z,101917.13
2022-08-22T17:53:57.514Z,101917.47
2022-08-22T17:56:28.828Z,101926.72
2022-08-22T17:59:06.841Z,101929.25
2022-08-22T18:01:50.761Z,101929.56
2022-08-22T18:04:52.269Z,101932.75
2022-08-22T18:07:48.926Z,101934.25
2022-08-22T18:10:38.709Z,101941.53
2022-08-22T18:13:15.075Z,101932.75
2022-08-22T18:15:53.240Z,101934.88
2022-08-22T18:18:33.525Z,101943.00
2022-08-22T18:21:08.637Z,101943.31
2022-08-22T18:23:44.535Z,101943.31
2022-08-22T18:26:50.532Z,101943.66
2022-08-22T18:29:31.568Z,101944.97
2022-08-22T18:32:07.958Z,101951.09
2022-08-22T18:34:41.576Z,101949.19
2022-08-22T18:37:35.396Z,101946.50
2022-08-22T18:40:28.800Z,101942.94
2022-08-22T18:43:14.957Z,101944.91
2022-08-22T18:45:48.282Z,101956.22
2022-08-22T18:48:22.494Z,101943.25
2022-08-22T18:50:50.520Z,101950.81
2022-08-22T18:53:56.827Z,101952.28
2022-08-22T18:56:43.505Z,101951.63
2022-08-22T18:59:36.716Z,101955.31
2022-08-22T19:02:10.567Z,101952.59
2022-08-22T19:04:50.508Z,101960.91
2022-08-22T19:07:30.011Z,101962.94
2022-08-22T19:10:05.835Z,101971.19
2022-08-22T19:12:33.687Z,101975.06
2022-08-22T19:15:28.947Z,101980.59
2022-08-22T19:18:23.193Z,101976.47
2022-08-22T19:21:35.670Z,101974.53
2022-08-22T19:24:28.126Z,101978.75
2022-08-22T19:27:11.452Z,101972.72
2022-08-22T19:29:41.642Z,101979.81
2022-08-22T19:32:31.123Z,101976.78
2022-08-22T19:35:24.473Z,101984.97
2022-08-22T19:38:01.932Z,101984.78
2022-08-22T19:40:45.151Z,101991.13
2022-08-22T19:43:40.465Z,101988.38
2022-08-22T19:46:12.031Z,101989.44
2022-08-22T19:48:50.374Z,101981.25
2022-08-22T19:51:20.806Z,101987.16
2022-08-22T19:54:02.391Z,101998.47
2022-08-22T19:57:01.070Z,101985.66
2022-08-22T19:59:50.871Z,101983.59
2022-08-22T20:02:52.949Z,101983.41
2022-08-22T20:05:45.493Z,101991.44
2022-08-22T20:08:21.363Z,101989.56
2022-08-22T20:11:18.799Z,101988.41
2022-08-22T20:13:46.962Z,101995.66
2022-08-22T20:17:01.689Z,101994.75
2022-08-22T20:22:47.171Z,102005.00
2022-08-22T20:25:41.535Z,102005.53
2022-08-22T20:28:31.138Z,102008.72
2022-08-22T20:31:02.397Z,102008.72
2022-08-22T20:33:37.515Z,102010.72
2022-08-22T20:36:18.530Z,102010.91
2022-08-22T20:39:03.133Z,102003.47
2022-08-22T20:41:55.234Z,102017.75
2022-08-22T20:44:25.615Z,102013.81
2022-08-22T20:47:06.133Z,102013.13
2022-08-22T20:49:44.358Z,102020.44
2022-08-22T20:52:29.817Z,102020.28
2022-08-22T20:55:12.046Z,102019.22
2022-08-22T20:57:53.505Z,102018.69
2022-08-22T21:00:28.314Z,102017.69
2022-08-22T21:03:02.547Z,102031.69
2022-08-22T21:05:39.718Z,102025.13
2022-08-22T21:08:22.602Z,102030.22
2022-08-22T21:11:21.240Z,102036.63
2022-08-22T21:13:49.699Z,102039.88
2022-08-22T21:16:33.029Z,102042.41
2022-08-22T21:19:04.083Z,102048.53
2022-08-22T21:21:35.105Z,102051.25
2022-08-22T21:24:06.769Z,102053.41
2022-08-22T21:26:58.544Z,102053.06
2022-08-22T21:29:32.391Z,102051.34
2022-08-22T21:32:13.557Z,102044.56
2022-08-22T21:34:44.209Z,102048.97
2022-08-22T21:37:17.041Z,102047.81
2022-08-22T21:39:49.928Z,102050.69
2022-08-22T21:42:38.065Z,102059.53
2022-08-22T21:45:12.553Z,102054.25
2022-08-22T21:47:42.888Z,102056.78
2022-08-22T21:50:13.677Z,102055.78
2022-08-22T21:53:04.248Z,102060.13
2022-08-22T21:55:35.172Z,102062.41
2022-08-22T21:58:34.167Z,102065.56
2022-08-22T22:01:25.070Z,102065.56
2022-08-22T22:03:55.438Z,102071.19
2022-08-22T22:06:22.969Z,102070.03
2022-08-22T22:08:50.954Z,102072.03
2022-08-22T22:11:18.825Z,102067.44
2022-08-22T22:13:46.431Z,102067.03
2022-08-22T22:16:18.673Z,102075.38
2022-08-22T22:18:46.291Z,102076.03
2022-08-22T22:21:13.886Z,102078.66
2022-08-22T22:23:41.383Z,102075.53
2022-08-22T22:26:15.240Z,102076.19
2022-08-22T22:28:49.266Z,102077.06
2022-08-22T22:31:18.358Z,102075.84
2022-08-22T22:33:46.166Z,102074.44
2022-08-22T22:36:23.535Z,102073.94
2022-08-22T22:38:52.134Z,102078.22
2022-08-22T22:41:23.395Z,102084.19
2022-08-22T22:43:55.155Z,102087.50
2022-08-22T22:46:23.699Z,102083.97
2022-08-22T22:48:51.923Z,102082.13
2022-08-22T22:51:20.239Z,102081.50
2022-08-22T22:53:48.521Z,102090.84
2022-08-22T22:56:22.405Z,102082.34
2022-08-22T22:58:58.928Z,102083.31
2022-08-22T23:01:28.754Z,102089.69
2022-08-22T23:03:59.220Z,102082.44
2022-08-22T23:06:33.745Z,102087.75
2022-08-22T23:09:01.306Z,102081.91
2022-08-22T23:11:30.391Z,102086.69
2022-08-22T23:13:57.991Z,102087.53
2022-08-22T23:16:28.187Z,102086.69
2022-08-22T23:18:56.284Z,102088.53
2022-08-22T23:21:28.287Z,102083.13
2022-08-22T23:23:58.682Z,102093.91
2022-08-22T23:26:27.217Z,102087.44
2022-08-22T23:28:56.085Z,102102.06
2022-08-22T23:31:31.366Z,102098.16
2022-08-22T23:34:05.612Z,102099.06
2022-08-22T23:36:33.285Z,102097.41
2022-08-22T23:39:01.070Z,102104.09
2022-08-22T23:41:29.094Z,102099.00
2022-08-22T23:43:56.869Z,102101.16
2022-08-22T23:46:26.421Z,102106.00
2022-08-22T23:48:54.298Z,102104.28
2022-08-22T23:51:24.352Z,102101.59
2022-08-22T23:53:54.524Z,102102.00
2022-08-22T23:56:40.019Z,102098.16
2022-08-22T23:59:12.379Z,102099.31
